Time;durP1;ratioP1;P1;durP2;ratioP2;P2;SDS_P1;SDS_P2;PMS_P1;PMS_P2;Temp;Humidity;BMP_temperature;BMP_pressure;BME280_temperature;BME280_humidity;BME280_pressure;Samples;Min_cycle;Max_cycle;Signal;HPM_P1;HPM_P2
2023/06/27 00:00:16;;;;;;;;;21.40;21.40;;;;;22.97;43.31;99143.00;4892393;29;8865;-82
2023/06/27 00:03:08;;;;;;;;;19.60;19.40;;;;;22.91;43.37;99140.81;4890454;29;8949;-82
2023/06/27 00:05:38;;;;;;;;;21.20;20.40;;;;;22.88;43.67;99139.16;4894384;29;8869;-81
2023/06/27 00:08:13;;;;;;;;;21.60;21.20;;;;;22.88;43.75;99133.81;4895267;29;9026;-83
2023/06/27 00:10:43;;;;;;;;;20.00;20.00;;;;;22.81;43.87;99137.97;4878898;29;8882;-82
2023/06/27 00:13:22;;;;;;;;;22.80;17.40;;;;;22.77;43.87;99139.19;4849716;29;9770;-82
2023/06/27 00:16:00;;;;;;;;;20.40;20.40;;;;;22.73;44.09;99143.06;4894219;29;10138;-83
2023/06/27 00:18:34;;;;;;;;;20.40;18.80;;;;;22.69;44.24;99142.44;4893670;29;8886;-83
2023/06/27 00:21:07;;;;;;;;;21.40;20.40;;;;;22.67;44.42;99148.91;4897292;29;9057;-84
2023/06/27 00:23:48;;;;;;;;;21.80;20.60;;;;;22.66;44.29;99142.69;4870785;29;8893;-84
2023/06/27 00:26:23;;;;;;;;;22.20;22.00;;;;;22.67;43.94;99141.72;4892836;29;8910;-83
2023/06/27 00:28:56;;;;;;;;;23.80;22.60;;;;;22.49;44.54;99137.81;4901423;29;9631;-82
2023/06/27 00:31:27;;;;;;;;;22.00;21.40;;;;;22.46;44.78;99138.88;4888741;29;8860;-82
2023/06/27 00:33:56;;;;;;;;;19.80;19.00;;;;;22.37;44.86;99142.25;4893687;29;8903;-83
2023/06/27 00:36:26;;;;;;;;;21.60;20.40;;;;;22.35;44.95;99141.53;4885555;29;8878;-81
2023/06/27 00:38:58;;;;;;;;;19.40;19.40;;;;;22.40;44.66;99136.69;4910332;29;8989;-82
2023/06/27 00:41:27;;;;;;;;;20.20;19.20;;;;;22.31;45.03;99134.69;4921189;29;8852;-81
2023/06/27 00:44:01;;;;;;;;;18.60;18.60;;;;;22.27;45.16;99133.22;4898923;29;8887;-83
2023/06/27 00:46:39;;;;;;;;;20.80;19.60;;;;;22.25;45.02;99141.38;4929749;29;8989;-82
2023/06/27 00:49:11;;;;;;;;;21.80;21.40;;;;;22.23;44.87;99132.56;4930594;29;8859;-83
2023/06/27 00:51:43;;;;;;;;;21.00;21.00;;;;;22.17;44.99;99125.88;4912785;29;8872;-81
2023/06/27 00:54:37;;;;;;;;;19.60;19.60;;;;;22.18;44.98;99127.59;4918761;29;8983;-80
2023/06/27 00:57:08;;;;;;;;;21.00;20.80;;;;;22.14;45.18;99136.78;4931259;29;9028;-83
2023/06/27 00:59:40;;;;;;;;;19.00;19.00;;;;;22.10;45.52;99132.66;4949849;28;8906;-83
2023/06/27 01:02:09;;;;;;;;;19.60;19.60;;;;;22.08;45.14;99131.06;4949459;28;8855;-81
2023/06/27 01:04:46;;;;;;;;;22.40;21.40;;;;;22.09;45.33;99133.63;4934368;28;8879;-82
2023/06/27 01:07:24;;;;;;;;;22.20;21.20;;;;;22.09;45.19;99130.97;4934582;28;8852;-81
2023/06/27 01:10:03;;;;;;;;;16.00;15.40;;;;;22.12;45.36;99125.34;4932795;28;8863;-81
2023/06/27 01:12:44;;;;;;;;;19.40;18.20;;;;;22.12;45.25;99127.19;4949999;28;8876;-82
2023/06/27 01:15:21;;;;;;;;;21.40;20.20;;;;;22.00;45.48;99124.47;4935519;28;8859;-83
2023/06/27 01:17:54;;;;;;;;;20.40;19.40;;;;;22.00;45.45;99128.97;4950651;28;8855;-82
2023/06/27 01:20:24;;;;;;;;;17.60;16.80;;;;;22.00;45.42;99123.63;4945257;29;8960;-80
2023/06/27 01:23:07;;;;;;;;;20.80;20.00;;;;;22.10;45.45;99127.28;4911036;29;8908;-83
2023/06/27 01:25:40;;;;;;;;;19.80;19.60;;;;;21.96;45.43;99124.84;4936012;29;8886;-84
2023/06/27 01:28:15;;;;;;;;;17.20;17.20;;;;;21.93;45.80;99125.91;4900464;29;8858;-81
2023/06/27 01:30:48;;;;;;;;;18.20;18.20;;;;;21.91;45.65;99114.44;4930582;29;8886;-80
2023/06/27 01:33:22;;;;;;;;;19.60;19.60;;;;;21.89;45.64;99115.56;4930447;29;8960;-83
2023/06/27 01:35:58;;;;;;;;;17.40;17.40;;;;;21.93;45.97;99117.88;4930159;29;8906;-81
2023/06/27 01:38:33;;;;;;;;;19.40;18.20;;;;;21.89;45.70;99112.88;4895504;29;8915;-83
2023/06/27 01:41:08;;;;;;;;;24.20;22.20;;;;;21.85;46.00;99106.91;4910199;29;8911;-82
2023/06/27 01:43:46;;;;;;;;;17.60;17.60;;;;;21.81;45.88;99108.09;4880947;29;8894;-80
2023/06/27 01:46:17;;;;;;;;;23.00;21.60;;;;;21.72;46.54;99108.78;4881079;29;8952;-83
2023/06/27 01:48:49;;;;;;;;;20.60;20.60;;;;;21.69;46.22;99109.00;4899318;29;8877;-81
2023/06/27 01:51:26;;;;;;;;;17.80;17.80;;;;;21.63;46.63;99111.19;4879146;29;8866;-83
2023/06/27 01:53:56;;;;;;;;;17.60;17.60;;;;;21.62;46.81;99105.94;4846722;29;8969;-81
2023/06/27 01:56:29;;;;;;;;;20.20;20.00;;;;;21.61;46.78;99109.56;4892558;29;9660;-80
2023/06/27 01:59:00;;;;;;;;;21.20;19.00;;;;;21.56;46.86;99101.88;4902887;29;8913;-80
2023/06/27 02:01:29;;;;;;;;;19.60;19.00;;;;;21.56;46.84;99103.66;4879843;29;8887;-83
2023/06/27 02:04:10;;;;;;;;;20.80;19.80;;;;;21.51;46.95;99104.03;4911090;29;8895;-83
2023/06/27 02:06:39;;;;;;;;;18.80;18.60;;;;;21.49;47.21;99111.31;4895230;29;8860;-81
2023/06/27 02:09:11;;;;;;;;;20.00;19.00;;;;;21.48;47.24;99104.22;4883531;29;8887;-82
2023/06/27 02:11:48;;;;;;;;;19.00;16.60;;;;;21.55;47.09;99108.16;4923172;29;8871;-80
2023/06/27 02:14:22;;;;;;;;;19.80;19.80;;;;;21.51;47.10;99112.03;4924543;29;8871;-81
2023/06/27 02:16:51;;;;;;;;;19.60;19.60;;;;;21.49;47.56;99111.31;4897063;29;8871;-81
2023/06/27 02:19:20;;;;;;;;;22.00;20.60;;;;;21.50;47.30;99112.16;4927752;29;8878;-80
2023/06/27 02:21:50;;;;;;;;;19.60;18.60;;;;;21.51;47.17;99114.72;4928915;29;8914;-80
2023/06/27 02:24:20;;;;;;;;;21.40;20.20;;;;;21.49;47.37;99115.81;4913724;29;8859;-80
2023/06/27 02:26:50;;;;;;;;;21.00;21.00;;;;;21.49;47.05;99110.47;4913281;29;8871;-84
2023/06/27 02:29:22;;;;;;;;;17.80;17.80;;;;;21.45;47.21;99116.03;4883212;29;9021;-80
2023/06/27 02:31:54;;;;;;;;;22.60;21.80;;;;;21.43;47.42;99111.75;4912794;29;9085;-80
2023/06/27 02:34:24;;;;;;;;;24.00;22.20;;;;;21.43;47.56;99117.97;4928984;29;8924;-79
2023/06/27 02:36:54;;;;;;;;;18.80;18.80;;;;;21.41;47.58;99119.88;4913569;29;8895;-80
2023/06/27 02:39:26;;;;;;;;;18.40;17.20;;;;;21.41;47.34;99124.41;4912439;29;9013;-80
2023/06/27 02:41:57;;;;;;;;;22.00;22.00;;;;;21.36;48.02;99116.69;4928592;29;8886;-80
2023/06/27 02:44:26;;;;;;;;;19.20;18.80;;;;;21.36;47.57;99126.53;4875394;29;8879;-80
2023/06/27 02:46:56;;;;;;;;;19.80;17.80;;;;;21.33;47.94;99132.94;4871985;29;8878;-81
2023/06/27 02:49:25;;;;;;;;;19.40;19.40;;;;;21.31;47.70;99128.69;4853042;29;9745;-80
2023/06/27 02:51:56;;;;;;;;;19.40;19.20;;;;;21.29;47.82;99130.63;4858315;29;9409;-82
2023/06/27 02:54:26;;;;;;;;;20.20;19.80;;;;;21.30;48.10;99132.34;4854057;29;8892;-81
2023/06/27 02:57:01;;;;;;;;;21.00;21.00;;;;;21.29;48.16;99126.13;4820522;29;8942;-81
2023/06/27 02:59:33;;;;;;;;;21.40;21.00;;;;;21.28;48.12;99124.41;4820941;29;8883;-80
2023/06/27 03:02:04;;;;;;;;;21.00;21.00;;;;;21.29;48.05;99117.25;4829522;29;9014;-80
2023/06/27 03:04:33;;;;;;;;;18.80;18.20;;;;;21.25;47.95;99124.63;4896957;29;8876;-80
2023/06/27 03:07:02;;;;;;;;;26.60;22.40;;;;;21.25;48.42;99128.16;4888528;29;8900;-80
2023/06/27 03:09:32;;;;;;;;;24.00;24.00;;;;;21.27;48.10;99128.03;4883296;29;8877;-81
2023/06/27 03:12:07;;;;;;;;;21.40;21.20;;;;;21.29;48.11;99136.81;4873149;29;8888;-80
2023/06/27 03:14:38;;;;;;;;;21.00;21.00;;;;;21.25;47.94;99124.63;4846150;29;9720;-80
2023/06/27 03:17:08;;;;;;;;;20.60;19.20;;;;;20.93;49.17;99130.47;4892405;29;8935;-82
2023/06/27 03:19:40;;;;;;;;;23.60;23.20;;;;;20.93;49.18;99140.31;4877340;29;8897;-82
2023/06/27 03:22:17;;;;;;;;;24.80;23.00;;;;;21.08;48.70;99131.19;4885389;29;8886;-80
2023/06/27 03:24:48;;;;;;;;;23.80;22.60;;;;;21.16;48.72;99135.97;4891462;29;9780;-80
2023/06/27 03:27:22;;;;;;;;;25.80;22.60;;;;;21.25;48.73;99144.19;4897713;29;8993;-83
2023/06/27 03:29:53;;;;;;;;;48.50;39.25;;;;;21.31;48.70;99142.91;4930766;29;8835;-82
2023/06/27 03:32:23;;;;;;;;;47.00;39.75;;;;;21.39;48.26;99145.88;4914715;29;8909;-82
2023/06/27 03:34:52;;;;;;;;;23.60;21.60;;;;;21.49;48.17;99147.91;4930329;29;8855;-82
2023/06/27 03:37:22;;;;;;;;;20.20;20.20;;;;;21.56;48.42;99147.34;4913640;29;8985;-82
2023/06/27 03:39:53;;;;;;;;;22.60;21.60;;;;;21.62;48.01;99149.59;4930679;29;8887;-83
2023/06/27 03:42:24;;;;;;;;;20.80;20.20;;;;;21.65;47.69;99148.50;4914597;29;8933;-81
2023/06/27 03:44:59;;;;;;;;;21.00;21.00;;;;;21.76;47.84;99145.88;4914993;29;8879;-81
2023/06/27 03:47:31;;;;;;;;;23.40;22.80;;;;;21.88;47.52;99145.94;4930981;29;8971;-82
2023/06/27 03:50:07;;;;;;;;;22.40;21.60;;;;;21.91;47.37;99143.88;4900353;29;8863;-80
2023/06/27 03:52:44;;;;;;;;;48.00;40.75;;;;;22.01;47.15;99138.69;4915358;29;8874;-82
2023/06/27 03:55:14;;;;;;;;;28.60;25.20;;;;;22.11;47.04;99146.88;4919017;29;8961;-81
2023/06/27 03:57:48;;;;;;;;;25.60;25.60;;;;;22.20;46.53;99147.06;4930304;29;8859;-80
2023/06/27 04:00:25;;;;;;;;;22.80;22.60;;;;;21.99;46.60;99154.91;4909021;29;8863;-81
2023/06/27 04:02:54;;;;;;;;;23.00;21.40;;;;;22.21;46.62;99151.44;4915542;29;8891;-83
2023/06/27 04:05:24;;;;;;;;;22.60;22.00;;;;;22.29;46.50;99148.19;4930750;29;8860;-82
2023/06/27 04:07:54;;;;;;;;;20.00;19.00;;;;;22.42;46.18;99162.34;4930206;29;8875;-79
2023/06/27 04:10:23;;;;;;;;;32.75;30.75;;;;;22.54;46.09;99149.00;4885170;29;8867;-81
2023/06/27 04:12:55;;;;;;;;;28.60;26.40;;;;;22.65;45.65;99151.69;4936401;29;8867;-80
2023/06/27 04:15:26;;;;;;;;;26.80;23.00;;;;;22.75;45.66;99151.81;4935569;29;8890;-80
2023/06/27 04:17:55;;;;;;;;;25.00;24.60;;;;;22.81;44.97;99148.69;4913633;29;8875;-81
2023/06/27 04:20:25;;;;;;;;;26.40;23.60;;;;;22.89;45.11;99154.31;4913940;29;9527;-80
2023/06/27 04:22:54;;;;;;;;;22.60;21.40;;;;;22.99;45.08;99146.41;4913838;29;9660;-79
2023/06/27 04:25:25;;;;;;;;;24.60;24.60;;;;;23.02;44.52;99142.63;4865752;29;8978;-80
2023/06/27 04:27:59;;;;;;;;;39.00;35.25;;;;;23.07;44.42;99152.03;4881662;29;8895;-81
2023/06/27 04:30:30;;;;;;;;;24.20;23.00;;;;;23.12;44.18;99151.66;4929508;29;9011;-82
2023/06/27 04:33:03;;;;;;;;;22.20;22.20;;;;;23.03;44.01;99152.38;4929543;29;8897;-81
2023/06/27 04:35:38;;;;;;;;;35.00;32.50;;;;;23.08;44.22;99143.00;4929612;29;8905;-80
2023/06/27 04:38:14;;;;;;;;;32.40;29.60;;;;;23.02;44.49;99151.53;4928532;29;8871;-83
2023/06/27 04:40:52;;;;;;;;;27.80;27.20;;;;;23.12;44.16;99152.50;4913268;29;8855;-82
2023/06/27 04:43:26;;;;;;;;;30.40;29.80;;;;;23.19;44.16;99148.34;4929860;29;8875;-81
2023/06/27 04:45:56;;;;;;;;;43.50;36.75;;;;;23.34;43.98;99153.47;4913814;29;8879;-81
2023/06/27 04:48:29;;;;;;;;;30.75;28.75;;;;;23.47;43.66;99154.19;4932011;29;8893;-79
2023/06/27 04:50:58;;;;;;;;;26.80;26.00;;;;;23.63;43.26;99153.78;4941947;29;8859;-81
2023/06/27 04:53:32;;;;;;;;;22.40;21.20;;;;;23.75;43.32;99146.56;4938101;29;8875;-80
2023/06/27 04:56:03;;;;;;;;;20.00;20.00;;;;;23.71;42.50;99153.16;4915225;29;9008;-81
2023/06/27 04:58:35;;;;;;;;;22.60;20.60;;;;;23.87;43.02;99161.66;4878160;29;8893;-80
2023/06/27 05:01:07;;;;;;;;;24.60;20.20;;;;;24.03;42.00;99160.38;4886829;29;8867;-79
2023/06/27 05:03:37;;;;;;;;;22.20;21.00;;;;;24.09;41.63;99159.88;4897814;29;9001;-81
2023/06/27 05:06:07;;;;;;;;;24.20;23.60;;;;;24.03;41.93;99163.91;4914253;29;8855;-79
2023/06/27 05:08:37;;;;;;;;;19.60;18.80;;;;;24.18;41.75;99150.22;4913596;29;8930;-80
2023/06/27 05:11:06;;;;;;;;;21.00;19.80;;;;;24.29;41.58;99161.75;4928153;29;8871;-82
2023/06/27 05:13:42;;;;;;;;;23.00;23.00;;;;;23.96;41.99;99155.53;4912052;29;8887;-80
2023/06/27 05:16:12;;;;;;;;;20.60;20.20;;;;;24.14;41.79;99155.84;4931000;29;8887;-80
2023/06/27 05:18:42;;;;;;;;;21.20;20.00;;;;;24.30;41.73;99155.41;4933645;29;8875;-79
2023/06/27 05:21:12;;;;;;;;;19.80;19.80;;;;;24.48;41.16;99155.66;4914720;29;8860;-80
2023/06/27 05:23:41;;;;;;;;;19.80;19.40;;;;;24.60;40.91;99148.38;4912227;29;8875;-75
2023/06/27 05:26:10;;;;;;;;;27.80;25.60;;;;;24.48;40.95;99150.28;4911334;29;9007;-78
2023/06/27 05:28:40;;;;;;;;;19.80;19.20;;;;;24.64;41.05;99155.22;4912205;29;8894;-77
2023/06/27 05:31:10;;;;;;;;;20.60;19.80;;;;;24.77;40.92;99149.66;4929187;29;8892;-82
2023/06/27 05:33:39;;;;;;;;;24.60;21.80;;;;;24.80;40.73;99157.47;4930805;29;8890;-82
2023/06/27 05:36:08;;;;;;;;;21.20;20.60;;;;;24.87;39.86;99152.41;4914982;29;8870;-79
2023/06/27 05:38:39;;;;;;;;;23.20;20.80;;;;;24.96;39.92;99151.59;4914696;29;9396;-79
2023/06/27 05:41:08;;;;;;;;;21.40;20.00;;;;;24.87;39.86;99157.78;4920813;28;8851;-78
2023/06/27 05:43:37;;;;;;;;;23.80;23.60;;;;;25.00;40.02;99154.84;4888885;29;8878;-79
2023/06/27 05:46:06;;;;;;;;;22.00;18.40;;;;;24.82;40.09;99154.63;4914804;29;9013;-79
2023/06/27 05:48:36;;;;;;;;;22.40;21.20;;;;;25.07;39.80;99153.34;4928001;29;9044;-78
2023/06/27 05:51:05;;;;;;;;;22.40;22.40;;;;;25.18;39.56;99161.31;4912304;29;8974;-76
2023/06/27 05:53:34;;;;;;;;;24.60;23.60;;;;;25.00;39.85;99162.91;4888515;29;8859;-77
2023/06/27 05:56:03;;;;;;;;;21.40;20.20;;;;;25.04;40.40;99157.16;4933772;29;8894;-77
2023/06/27 05:58:32;;;;;;;;;24.50;24.50;;;;;24.72;40.90;99163.47;4943920;29;8901;-80
2023/06/27 06:01:01;;;;;;;;;20.20;18.40;;;;;25.02;40.36;99167.19;4914645;29;8984;-79
2023/06/27 06:03:30;;;;;;;;;23.80;23.60;;;;;25.25;39.94;99161.63;4928651;29;8883;-78
2023/06/27 06:06:00;;;;;;;;;21.60;21.60;;;;;25.54;39.86;99160.91;4913569;29;8868;-81
2023/06/27 06:08:29;;;;;;;;;17.60;17.20;;;;;25.73;38.50;99162.78;4913668;29;8897;-77
2023/06/27 06:10:58;;;;;;;;;21.60;21.20;;;;;25.94;38.60;99163.53;4916187;29;8898;-77
2023/06/27 06:13:26;;;;;;;;;22.00;20.80;;;;;25.02;39.56;99179.78;4917948;29;8860;-81
2023/06/27 06:15:55;;;;;;;;;22.40;20.20;;;;;25.23;39.46;99180.59;4913932;29;8864;-79
2023/06/27 06:18:24;;;;;;;;;21.20;20.60;;;;;24.79;40.73;99181.78;4928026;29;8859;-77
2023/06/27 06:20:53;;;;;;;;;28.40;24.80;;;;;24.88;40.28;99175.59;4913185;29;8884;-78
2023/06/27 06:23:23;;;;;;;;;25.40;24.20;;;;;25.10;40.13;99174.59;4912873;29;8902;-77
2023/06/27 06:25:52;;;;;;;;;25.80;24.60;;;;;25.29;40.25;99180.03;4913177;29;8856;-77
2023/06/27 06:28:21;;;;;;;;;31.50;29.75;;;;;24.96;40.39;99181.16;4911602;29;8891;-76
2023/06/27 06:30:50;;;;;;;;;21.20;19.40;;;;;25.22;40.07;99178.03;4895371;29;8879;-81
2023/06/27 06:33:18;;;;;;;;;24.00;22.40;;;;;24.78;40.90;99175.56;4911666;29;9682;-81
2023/06/27 06:35:47;;;;;;;;;20.00;20.00;;;;;25.03;40.20;99190.41;4927640;29;9589;-77
2023/06/27 06:38:16;;;;;;;;;20.40;20.40;;;;;25.39;40.28;99177.41;4915616;29;8939;-78
2023/06/27 06:40:46;;;;;;;;;21.20;20.60;;;;;25.11;39.54;99177.16;4921524;29;8839;-78
2023/06/27 06:43:15;;;;;;;;;19.40;17.20;;;;;25.28;38.92;99175.66;4898537;29;8902;-80
2023/06/27 06:45:44;;;;;;;;;18.00;17.60;;;;;25.24;38.97;99173.38;4913869;29;8990;-78
2023/06/27 06:48:13;;;;;;;;;21.40;20.80;;;;;24.65;39.75;99177.56;4910322;29;8876;-79
2023/06/27 06:50:42;;;;;;;;;26.00;23.80;;;;;24.53;40.59;99177.63;4893325;29;8864;-79
2023/06/27 06:53:11;;;;;;;;;22.00;22.00;;;;;24.14;41.52;99176.47;4878718;29;8914;-79
2023/06/27 06:55:40;;;;;;;;;19.00;18.20;;;;;24.80;40.45;99180.81;4910590;29;9625;-79
2023/06/27 06:58:10;;;;;;;;;21.00;20.00;;;;;25.22;39.96;99178.03;4912239;29;8926;-78
2023/06/27 07:00:39;;;;;;;;;23.80;23.80;;;;;24.65;40.50;99175.72;4912152;29;8895;-78
2023/06/27 07:03:08;;;;;;;;;20.80;20.40;;;;;24.59;40.40;99178.09;4911672;29;8864;-79
2023/06/27 07:05:41;;;;;;;;;24.00;22.80;;;;;24.35;41.12;99182.72;4910064;29;8879;-78
2023/06/27 07:08:11;;;;;;;;;25.60;25.00;;;;;24.78;40.34;99180.94;4880996;29;8905;-80
2023/06/27 07:10:40;;;;;;;;;21.20;19.60;;;;;25.19;39.18;99176.47;4909322;29;8862;-77
2023/06/27 07:13:10;;;;;;;;;22.00;19.80;;;;;25.54;38.90;99187.81;4894431;29;8890;-80
2023/06/27 07:15:39;;;;;;;;;16.40;16.40;;;;;25.47;38.97;99176.72;4894285;29;8877;-79
2023/06/27 07:18:08;;;;;;;;;23.40;22.00;;;;;25.75;38.30;99177.78;4894462;29;8886;-78
2023/06/27 07:20:37;;;;;;;;;22.80;20.80;;;;;25.83;38.31;99179.78;4910169;29;8929;-78
2023/06/27 07:23:06;;;;;;;;;23.00;23.00;;;;;26.25;37.92;99179.56;4910237;29;8898;-78
2023/06/27 07:25:36;;;;;;;;;20.80;20.80;;;;;26.55;37.35;99178.59;4909513;29;8886;-78
2023/06/27 07:28:06;;;;;;;;;21.60;19.60;;;;;26.84;36.63;99180.38;4894294;29;8882;-77
2023/06/27 07:30:36;;;;;;;;;20.40;20.20;;;;;26.69;36.32;99177.28;4909858;29;8909;-77
2023/06/27 07:33:05;;;;;;;;;19.60;19.60;;;;;25.99;37.08;99177.44;4909987;29;8890;-78
2023/06/27 07:35:34;;;;;;;;;23.00;22.80;;;;;25.33;38.07;99177.13;4878801;29;8874;-78
2023/06/27 07:38:03;;;;;;;;;18.00;18.00;;;;;25.86;37.47;99180.34;4912434;29;8859;-78
2023/06/27 07:40:32;;;;;;;;;26.40;24.20;;;;;26.15;37.08;99189.47;4926687;29;8879;-77
2023/06/27 07:43:01;;;;;;;;;19.40;19.40;;;;;25.08;38.63;99182.78;4912345;29;9736;-76
2023/06/27 07:45:32;;;;;;;;;19.20;18.60;;;;;25.62;37.85;99183.41;4912116;29;8957;-78
2023/06/27 07:48:02;;;;;;;;;24.00;22.80;;;;;25.21;38.54;99179.00;4912053;29;9649;-78
2023/06/27 07:50:31;;;;;;;;;18.80;18.60;;;;;24.70;39.71;99186.09;4910957;29;9716;-79
2023/06/27 07:53:00;;;;;;;;;22.40;22.40;;;;;24.52;40.00;99175.06;4879196;29;9060;-78
2023/06/27 07:55:29;;;;;;;;;26.60;24.40;;;;;24.93;40.08;99181.44;4926487;29;8867;-77
2023/06/27 07:57:57;;;;;;;;;19.80;19.80;;;;;25.49;39.04;99178.31;4912391;29;8883;-78
2023/06/27 08:00:26;;;;;;;;;19.40;17.20;;;;;25.98;37.79;99164.94;4913383;29;8863;-78
2023/06/27 08:02:55;;;;;;;;;15.60;15.40;;;;;25.46;37.93;99178.56;4911329;29;8884;-79
2023/06/27 08:05:27;;;;;;;;;18.00;17.80;;;;;25.93;36.83;99175.31;4909405;29;8875;-77
2023/06/27 08:07:56;;;;;;;;;19.20;18.40;;;;;25.89;36.38;99168.47;4926603;29;8863;-78
2023/06/27 08:10:27;;;;;;;;;24.60;22.40;;;;;25.96;36.06;99177.69;4910271;29;8887;-77
2023/06/27 08:12:56;;;;;;;;;18.80;18.80;;;;;25.86;36.38;99174.13;4912074;29;8960;-78
2023/06/27 08:15:25;;;;;;;;;18.20;18.00;;;;;25.18;37.72;99185.50;4915108;29;8870;-77
2023/06/27 08:17:54;;;;;;;;;21.00;21.00;;;;;25.53;37.43;99181.56;4914963;29;8879;-78
2023/06/27 08:20:23;;;;;;;;;16.40;16.40;;;;;25.87;36.46;99186.56;4913291;29;8859;-77
2023/06/27 08:22:53;;;;;;;;;19.40;18.00;;;;;26.35;36.02;99188.50;4914456;29;8883;-76
2023/06/27 08:25:22;;;;;;;;;13.40;11.20;;;;;26.43;34.98;99185.06;4916096;29;9026;-79
2023/06/27 08:27:51;;;;;;;;;16.40;16.40;;;;;26.86;34.29;99181.91;4918169;29;8887;-78
2023/06/27 08:30:20;;;;;;;;;34.00;30.75;;;;;26.42;35.65;99184.22;4914524;29;8875;-78
2023/06/27 08:32:49;;;;;;;;;8.40;8.40;;;;;25.59;33.44;99191.78;4914604;29;8933;-77
2023/06/27 08:35:18;;;;;;;;;15.00;13.80;;;;;25.19;35.87;99186.34;4914714;29;8879;-76
2023/06/27 08:37:47;;;;;;;;;18.80;18.80;;;;;25.39;36.60;99187.34;4928521;29;8875;-77
2023/06/27 08:40:21;;;;;;;;;16.80;16.80;;;;;25.08;37.22;99192.69;4899773;29;8918;-86
2023/06/27 08:42:50;;;;;;;;;14.60;14.60;;;;;25.77;36.23;99188.41;4921340;29;8914;-86
2023/06/27 08:45:21;;;;;;;;;16.60;14.80;;;;;25.89;35.48;99193.56;4912650;29;8888;-86
2023/06/27 08:47:50;;;;;;;;;18.40;17.40;;;;;25.48;37.27;99192.75;4908450;29;8944;-75
2023/06/27 08:50:21;;;;;;;;;16.40;15.20;;;;;25.48;37.46;99197.28;4913644;29;9040;-75
2023/06/27 08:52:55;;;;;;;;;17.60;16.60;;;;;25.02;36.62;99196.78;4898662;29;8925;-86
2023/06/27 08:55:36;;;;;;;;;16.00;14.80;;;;;24.65;37.39;99191.00;4896026;29;8900;-75
2023/06/27 08:58:09;;;;;;;;;16.40;16.40;;;;;25.25;36.74;99186.69;4913655;29;8887;-74
2023/06/27 09:00:39;;;;;;;;;14.20;14.20;;;;;25.82;37.17;99199.63;4913744;29;8868;-75
2023/06/27 09:03:09;;;;;;;;;19.00;17.80;;;;;26.01;36.42;99194.28;4913919;29;8887;-74
2023/06/27 09:05:38;;;;;;;;;19.80;19.20;;;;;25.31;36.02;99188.81;4896229;29;8887;-74
2023/06/27 09:08:09;;;;;;;;;15.40;14.80;;;;;25.20;37.00;99194.31;4912495;29;9010;-75
2023/06/27 09:10:40;;;;;;;;;11.60;9.40;;;;;25.41;33.38;99198.81;4913953;29;8894;-75
2023/06/27 09:13:11;;;;;;;;;16.40;14.80;;;;;25.84;33.42;99184.19;4913352;29;8879;-74
2023/06/27 09:15:40;;;;;;;;;18.00;15.40;;;;;26.47;33.46;99176.63;4913288;29;8887;-74
2023/06/27 09:18:09;;;;;;;;;16.00;15.40;;;;;26.37;33.87;99181.13;4912950;29;8902;-74
2023/06/27 09:20:39;;;;;;;;;17.80;17.00;;;;;26.76;34.04;99175.69;4913665;29;8871;-74
2023/06/27 09:23:08;;;;;;;;;19.80;19.60;;;;;27.28;33.46;99179.81;4913112;29;8863;-74
2023/06/27 09:25:39;;;;;;;;;18.80;18.00;;;;;26.60;34.22;99189.75;4913617;29;8875;-75
2023/06/27 09:28:17;;;;;;;;;16.00;15.40;;;;;25.47;35.23;99192.88;4913211;29;9289;-75
2023/06/27 09:30:54;;;;;;;;;15.80;15.80;;;;;25.75;34.81;99191.25;4913310;29;8879;-73
2023/06/27 09:33:23;;;;;;;;;17.00;16.40;;;;;26.43;34.12;99180.53;4913568;29;8871;-73
2023/06/27 09:35:55;;;;;;;;;17.80;17.00;;;;;26.56;34.07;99177.56;4880213;29;8918;-75
2023/06/27 09:38:32;;;;;;;;;19.80;18.40;;;;;25.76;36.23;99186.72;4913282;29;8863;-74
2023/06/27 09:41:06;;;;;;;;;18.40;17.20;;;;;25.93;35.14;99187.91;4913255;29;8883;-74
2023/06/27 09:43:36;;;;;;;;;17.40;16.60;;;;;25.83;34.73;99194.13;4912966;29;8899;-75
2023/06/27 09:46:06;;;;;;;;;18.20;18.20;;;;;25.48;34.86;99187.34;4912715;29;8886;-76
2023/06/27 09:48:36;;;;;;;;;18.00;17.00;;;;;26.28;33.44;99190.03;4912930;29;8859;-73
2023/06/27 09:51:07;;;;;;;;;19.80;18.60;;;;;26.26;32.86;99181.25;4913303;29;8883;-72
2023/06/27 09:53:36;;;;;;;;;18.20;17.00;;;;;26.46;32.34;99185.69;4913007;29;8906;-75
2023/06/27 09:56:06;;;;;;;;;14.80;14.80;;;;;26.83;32.01;99181.34;4912996;29;8867;-74
2023/06/27 09:58:35;;;;;;;;;16.40;16.40;;;;;26.94;31.24;99183.03;4912748;29;8867;-75
2023/06/27 10:01:05;;;;;;;;;11.20;10.80;;;;;27.23;31.37;99186.50;4912834;29;8909;-76
2023/06/27 10:03:35;;;;;;;;;17.60;16.20;;;;;26.84;32.26;99174.97;4912750;29;8973;-73
2023/06/27 10:06:05;;;;;;;;;15.80;15.80;;;;;27.23;32.11;99172.13;4912620;29;8855;-74
2023/06/27 10:08:40;;;;;;;;;17.60;17.60;;;;;27.49;31.07;99172.28;4912859;29;8890;-73
2023/06/27 10:11:10;;;;;;;;;18.60;16.60;;;;;27.13;31.77;99164.09;4912652;29;8875;-74
2023/06/27 10:14:00;;;;;;;;;15.60;15.60;;;;;27.63;29.94;99179.94;4913828;29;8920;-74
2023/06/27 10:16:29;;;;;;;;;16.00;14.20;;;;;26.59;31.91;99171.91;4913237;29;8914;-75
2023/06/27 10:18:58;;;;;;;;;15.80;14.20;;;;;26.72;31.88;99168.03;4910843;29;9014;-73
2023/06/27 10:21:29;;;;;;;;;16.60;16.60;;;;;27.36;31.35;99167.25;4912454;29;8876;-75
2023/06/27 10:24:02;;;;;;;;;16.60;15.40;;;;;26.99;31.37;99168.09;4912272;29;9670;-76
2023/06/27 10:26:33;;;;;;;;;16.40;14.20;;;;;27.64;30.84;99160.00;4911147;29;8855;-74
2023/06/27 10:29:14;;;;;;;;;23.80;23.00;;;;;27.88;30.03;99160.44;4912031;29;8897;-74
2023/06/27 10:31:45;;;;;;;;;16.20;16.20;;;;;27.97;29.04;99157.66;4912138;29;8998;-74
2023/06/27 10:34:20;;;;;;;;;21.40;19.40;;;;;27.95;29.32;99161.50;4911412;29;8917;-74
2023/06/27 10:36:57;;;;;;;;;16.20;16.00;;;;;27.05;30.42;99164.84;4912201;29;8971;-74
2023/06/27 10:39:28;;;;;;;;;16.00;16.00;;;;;26.89;30.76;99164.59;4912182;29;8863;-75
2023/06/27 10:42:03;;;;;;;;;12.60;12.60;;;;;27.41;29.82;99162.25;4912467;29;8894;-75
2023/06/27 10:44:35;;;;;;;;;16.40;15.40;;;;;27.96;29.76;99155.13;4911095;29;9713;-75
2023/06/27 10:47:27;;;;;;;;;14.20;13.80;;;;;28.42;28.56;99161.28;4912357;29;8990;-74
2023/06/27 10:50:05;;;;;;;;;14.40;14.40;;;;;28.69;29.26;99146.81;4911854;29;8874;-74
2023/06/27 10:52:35;;;;;;;;;13.40;13.40;;;;;28.99;28.64;99153.59;4911860;29;8902;-74
2023/06/27 10:55:23;;;;;;;;;13.60;13.60;;;;;29.27;29.00;99147.13;4911652;29;8981;-74
2023/06/27 10:58:06;;;;;;;;;17.20;15.80;;;;;28.30;29.17;99146.31;4909726;29;8898;-74
2023/06/27 11:00:35;;;;;;;;;14.60;14.60;;;;;28.02;28.97;99146.38;4911293;29;9045;-72
2023/06/27 11:03:06;;;;;;;;;15.20;15.00;;;;;27.31;29.69;99141.72;4911479;29;8883;-74
2023/06/27 11:05:43;;;;;;;;;16.00;15.20;;;;;27.16;29.93;99142.22;4910373;29;8914;-72
2023/06/27 11:08:15;;;;;;;;;15.40;14.80;;;;;26.47;31.02;99149.66;4911528;29;8848;-74
2023/06/27 11:10:52;;;;;;;;;18.40;17.40;;;;;26.63;31.29;99143.66;4911774;29;8872;-73
2023/06/27 11:13:23;;;;;;;;;15.40;15.40;;;;;27.04;30.67;99138.00;4893708;29;8898;-77
2023/06/27 11:15:53;;;;;;;;;16.40;15.20;;;;;27.09;31.13;99135.72;4911756;29;8883;-74
2023/06/27 11:18:25;;;;;;;;;22.60;22.40;;;;;27.37;30.92;99131.16;4911754;29;8875;-73
2023/06/27 11:20:55;;;;;;;;;14.40;14.40;;;;;27.12;30.97;99131.88;4893656;29;9085;-73
2023/06/27 11:23:25;;;;;;;;;13.20;12.40;;;;;27.77;30.64;99121.00;4911881;29;9605;-73
2023/06/27 11:25:55;;;;;;;;;15.20;15.20;;;;;27.78;30.26;99125.38;4911496;29;8891;-73
2023/06/27 11:28:25;;;;;;;;;11.80;11.80;;;;;28.01;29.41;99121.22;4911576;29;8993;-74
2023/06/27 11:30:59;;;;;;;;;13.40;12.40;;;;;28.59;29.02;99116.28;4911260;29;8867;-74
2023/06/27 11:33:29;;;;;;;;;14.00;14.00;;;;;29.07;28.85;99111.34;4911112;29;8874;-74
2023/06/27 11:35:59;;;;;;;;;11.20;10.00;;;;;29.63;28.34;99117.13;4911084;29;9633;-74
2023/06/27 11:38:29;;;;;;;;;13.60;13.60;;;;;29.90;27.68;99107.91;4911343;29;8859;-73
2023/06/27 11:40:58;;;;;;;;;15.40;13.80;;;;;30.32;26.95;99098.75;4910777;29;9737;-73
2023/06/27 11:43:29;;;;;;;;;16.40;16.40;;;;;29.23;28.11;99107.88;4911353;29;9013;-73